sensor_id;sensor_type;location;lat;lon;timestamp;pressure;altitude;pressure_sealevel;temperature;humidity
70338;BME280;57757;53.198;19.646;2023-09-30T00:01:02;100172.80;;;18.93;49.77
70338;BME280;57757;53.198;19.646;2023-09-30T00:03:32;100172.77;;;18.90;49.72
70338;BME280;57757;53.198;19.646;2023-09-30T00:06:01;100175.23;;;18.88;49.76
70338;BME280;57757;53.198;19.646;2023-09-30T00:08:30;100176.75;;;18.86;49.98
70338;BME280;57757;53.198;19.646;2023-09-30T00:10:58;100175.98;;;18.84;50.00
70338;BME280;57757;53.198;19.646;2023-09-30T00:13:25;100173.39;;;18.83;49.92
70338;BME280;57757;53.198;19.646;2023-09-30T00:15:54;100172.70;;;18.82;50.07
70338;BME280;57757;53.198;19.646;2023-09-30T00:18:22;100170.30;;;18.81;50.04
70338;BME280;57757;53.198;19.646;2023-09-30T00:20:50;100172.63;;;18.81;50.17
70338;BME280;57757;53.198;19.646;2023-09-30T00:23:17;100176.02;;;18.80;50.12
70338;BME280;57757;53.198;19.646;2023-09-30T00:25:48;100176.89;;;18.80;50.18
70338;BME280;57757;53.198;19.646;2023-09-30T00:28:17;100176.23;;;18.79;50.29
70338;BME280;57757;53.198;19.646;2023-09-30T00:30:46;100172.56;;;18.79;50.44
70338;BME280;57757;53.198;19.646;2023-09-30T00:33:15;100170.98;;;18.79;50.37
70338;BME280;57757;53.198;19.646;2023-09-30T00:35:43;100169.23;;;18.79;50.50
70338;BME280;57757;53.198;19.646;2023-09-30T00:38:10;100166.74;;;18.79;50.55
70338;BME280;57757;53.198;19.646;2023-09-30T00:40:38;100166.94;;;18.79;50.51
70338;BME280;57757;53.198;19.646;2023-09-30T00:43:06;100166.95;;;18.78;50.67
70338;BME280;57757;53.198;19.646;2023-09-30T00:45:34;100163.98;;;18.78;50.65
70338;BME280;57757;53.198;19.646;2023-09-30T00:48:02;100165.88;;;18.79;50.63
70338;BME280;57757;53.198;19.646;2023-09-30T00:50:30;100163.91;;;18.79;50.75
70338;BME280;57757;53.198;19.646;2023-09-30T00:52:58;100164.59;;;18.80;50.88
70338;BME280;57757;53.198;19.646;2023-09-30T00:55:26;100161.44;;;18.79;50.73
70338;BME280;57757;53.198;19.646;2023-09-30T00:57:54;100160.76;;;18.79;50.94
70338;BME280;57757;53.198;19.646;2023-09-30T01:00:22;100164.31;;;18.78;50.92
70338;BME280;57757;53.198;19.646;2023-09-30T01:02:52;100158.94;;;18.77;50.83
70338;BME280;57757;53.198;19.646;2023-09-30T01:05:24;100158.97;;;18.76;50.95
70338;BME280;57757;53.198;19.646;2023-09-30T01:07:51;100158.25;;;18.77;51.06
70338;BME280;57757;53.198;19.646;2023-09-30T01:10:19;100157.40;;;18.76;51.04
70338;BME280;57757;53.198;19.646;2023-09-30T01:12:47;100161.30;;;18.76;51.15
70338;BME280;57757;53.198;19.646;2023-09-30T01:15:15;100162.54;;;18.76;51.25
70338;BME280;57757;53.198;19.646;2023-09-30T01:17:43;100160.80;;;18.75;51.26
70338;BME280;57757;53.198;19.646;2023-09-30T01:20:12;100162.27;;;18.74;51.29
70338;BME280;57757;53.198;19.646;2023-09-30T01:22:44;100159.52;;;18.73;51.33
70338;BME280;57757;53.198;19.646;2023-09-30T01:25:12;100157.83;;;18.72;51.37
70338;BME280;57757;53.198;19.646;2023-09-30T01:27:40;100158.73;;;18.71;51.43
70338;BME280;57757;53.198;19.646;2023-09-30T01:30:08;100155.31;;;18.70;51.32
70338;BME280;57757;53.198;19.646;2023-09-30T01:32:39;100155.18;;;18.69;51.42
70338;BME280;57757;53.198;19.646;2023-09-30T01:35:08;100157.33;;;18.68;51.43
70338;BME280;57757;53.198;19.646;2023-09-30T01:37:36;100150.48;;;18.68;51.45
70338;BME280;57757;53.198;19.646;2023-09-30T01:40:03;100146.42;;;18.68;51.67
70338;BME280;57757;53.198;19.646;2023-09-30T01:42:33;100149.08;;;18.68;51.49
70338;BME280;57757;53.198;19.646;2023-09-30T01:45:00;100141.70;;;18.67;51.54
70338;BME280;57757;53.198;19.646;2023-09-30T01:47:28;100135.38;;;18.67;51.69
70338;BME280;57757;53.198;19.646;2023-09-30T01:49:56;100126.75;;;18.67;51.62
70338;BME280;57757;53.198;19.646;2023-09-30T01:52:23;100124.77;;;18.68;51.62
70338;BME280;57757;53.198;19.646;2023-09-30T01:54:51;100123.30;;;18.69;51.74
70338;BME280;57757;53.198;19.646;2023-09-30T01:57:19;100119.48;;;18.68;51.74
70338;BME280;57757;53.198;19.646;2023-09-30T01:59:47;100120.91;;;18.67;51.79
70338;BME280;57757;53.198;19.646;2023-09-30T02:02:15;100116.00;;;18.67;51.75
70338;BME280;57757;53.198;19.646;2023-09-30T02:04:43;100112.94;;;18.66;51.77
70338;BME280;57757;53.198;19.646;2023-09-30T02:07:11;100118.56;;;18.66;51.73
70338;BME280;57757;53.198;19.646;2023-09-30T02:09:38;100117.34;;;18.65;51.89
70338;BME280;57757;53.198;19.646;2023-09-30T02:12:06;100113.16;;;18.64;51.88
70338;BME280;57757;53.198;19.646;2023-09-30T02:14:37;100119.14;;;18.64;51.88
70338;BME280;57757;53.198;19.646;2023-09-30T02:17:06;100120.54;;;18.65;51.88
70338;BME280;57757;53.198;19.646;2023-09-30T02:19:33;100117.38;;;18.65;51.86
70338;BME280;57757;53.198;19.646;2023-09-30T02:22:01;100114.41;;;18.64;51.92
70338;BME280;57757;53.198;19.646;2023-09-30T02:24:29;100120.15;;;18.62;51.85
70338;BME280;57757;53.198;19.646;2023-09-30T02:26:57;100120.92;;;18.60;51.99
70338;BME280;57757;53.198;19.646;2023-09-30T02:29:25;100122.25;;;18.59;51.99
70338;BME280;57757;53.198;19.646;2023-09-30T02:31:53;100117.58;;;18.58;51.93
70338;BME280;57757;53.198;19.646;2023-09-30T02:34:22;100121.30;;;18.57;52.09
70338;BME280;57757;53.198;19.646;2023-09-30T02:36:50;100122.40;;;18.56;52.00
70338;BME280;57757;53.198;19.646;2023-09-30T02:39:18;100124.04;;;18.55;52.14
70338;BME280;57757;53.198;19.646;2023-09-30T02:41:47;100125.92;;;18.54;52.10
70338;BME280;57757;53.198;19.646;2023-09-30T02:44:17;100127.05;;;18.52;52.21
70338;BME280;57757;53.198;19.646;2023-09-30T02:46:46;100129.89;;;18.52;52.36
70338;BME280;57757;53.198;19.646;2023-09-30T02:49:14;100127.64;;;18.51;52.33
70338;BME280;57757;53.198;19.646;2023-09-30T02:51:42;100132.92;;;18.51;52.41
70338;BME280;57757;53.198;19.646;2023-09-30T02:54:09;100134.86;;;18.51;52.47
70338;BME280;57757;53.198;19.646;2023-09-30T02:56:37;100134.98;;;18.52;52.49
70338;BME280;57757;53.198;19.646;2023-09-30T02:59:05;100128.27;;;18.52;52.52
70338;BME280;57757;53.198;19.646;2023-09-30T03:01:34;100124.61;;;18.52;52.48
70338;BME280;57757;53.198;19.646;2023-09-30T03:04:03;100125.96;;;18.49;52.54
70338;BME280;57757;53.198;19.646;2023-09-30T03:06:34;100123.41;;;18.48;52.62
70338;BME280;57757;53.198;19.646;2023-09-30T03:09:05;100125.98;;;18.46;52.67
70338;BME280;57757;53.198;19.646;2023-09-30T03:11:33;100123.59;;;18.45;52.68
70338;BME280;57757;53.198;19.646;2023-09-30T03:14:01;100124.42;;;18.42;52.74
70338;BME280;57757;53.198;19.646;2023-09-30T03:16:29;100118.91;;;18.40;52.79
70338;BME280;57757;53.198;19.646;2023-09-30T03:18:58;100110.24;;;18.38;52.99
70338;BME280;57757;53.198;19.646;2023-09-30T03:21:25;100108.77;;;18.36;52.95
70338;BME280;57757;53.198;19.646;2023-09-30T03:23:53;100110.14;;;18.33;52.98
70338;BME280;57757;53.198;19.646;2023-09-30T03:26:21;100103.25;;;18.31;53.15
70338;BME280;57757;53.198;19.646;2023-09-30T03:28:49;100105.98;;;18.29;53.07
70338;BME280;57757;53.198;19.646;2023-09-30T03:31:21;100106.48;;;18.27;53.03
70338;BME280;57757;53.198;19.646;2023-09-30T03:33:50;100108.55;;;18.24;53.20
70338;BME280;57757;53.198;19.646;2023-09-30T03:36:21;100109.36;;;18.23;53.22
70338;BME280;57757;53.198;19.646;2023-09-30T03:38:52;100113.55;;;18.20;53.22
70338;BME280;57757;53.198;19.646;2023-09-30T03:41:26;100114.34;;;18.19;53.38
70338;BME280;57757;53.198;19.646;2023-09-30T03:43:54;100112.84;;;18.17;53.51
70338;BME280;57757;53.198;19.646;2023-09-30T03:46:22;100111.56;;;18.15;53.41
70338;BME280;57757;53.198;19.646;2023-09-30T03:48:50;100111.45;;;18.13;53.60
70338;BME280;57757;53.198;19.646;2023-09-30T03:51:18;100118.73;;;18.12;53.56
70338;BME280;57757;53.198;19.646;2023-09-30T03:53:46;100121.81;;;18.10;53.58
70338;BME280;57757;53.198;19.646;2023-09-30T03:56:14;100116.82;;;18.09;53.78
70338;BME280;57757;53.198;19.646;2023-09-30T03:58:42;100119.36;;;18.07;53.88
70338;BME280;57757;53.198;19.646;2023-09-30T04:01:11;100126.34;;;18.05;54.05
70338;BME280;57757;53.198;19.646;2023-09-30T04:03:39;100131.39;;;18.03;54.10
70338;BME280;57757;53.198;19.646;2023-09-30T04:06:08;100130.66;;;18.00;54.12
70338;BME280;57757;53.198;19.646;2023-09-30T04:08:36;100130.76;;;17.98;54.25
70338;BME280;57757;53.198;19.646;2023-09-30T04:11:04;100132.30;;;17.96;54.29
70338;BME280;57757;53.198;19.646;2023-09-30T04:13:32;100131.37;;;17.94;54.40
70338;BME280;57757;53.198;19.646;2023-09-30T04:16:00;100125.58;;;17.90;54.47
70338;BME280;57757;53.198;19.646;2023-09-30T04:18:28;100125.02;;;17.88;54.55
70338;BME280;57757;53.198;19.646;2023-09-30T04:20:56;100129.89;;;17.86;54.66
70338;BME280;57757;53.198;19.646;2023-09-30T04:23:25;100126.47;;;17.84;54.70
70338;BME280;57757;53.198;19.646;2023-09-30T04:25:53;100125.25;;;17.83;54.74
70338;BME280;57757;53.198;19.646;2023-09-30T04:28:20;100127.17;;;17.84;54.79
70338;BME280;57757;53.198;19.646;2023-09-30T04:30:48;100130.16;;;17.84;54.96
70338;BME280;57757;53.198;19.646;2023-09-30T04:33:17;100129.97;;;17.84;55.04
70338;BME280;57757;53.198;19.646;2023-09-30T04:35:47;100132.58;;;17.85;55.09
70338;BME280;57757;53.198;19.646;2023-09-30T04:38:16;100138.77;;;17.84;55.20
70338;BME280;57757;53.198;19.646;2023-09-30T04:40:43;100138.61;;;17.84;55.21
70338;BME280;57757;53.198;19.646;2023-09-30T04:43:12;100144.44;;;17.83;55.32
70338;BME280;57757;53.198;19.646;2023-09-30T04:45:41;100152.08;;;17.82;55.43
70338;BME280;57757;53.198;19.646;2023-09-30T04:48:09;100156.20;;;17.81;55.41
70338;BME280;57757;53.198;19.646;2023-09-30T04:50:41;100160.27;;;17.80;55.59
70338;BME280;57757;53.198;19.646;2023-09-30T04:53:09;100165.05;;;17.79;55.65
70338;BME280;57757;53.198;19.646;2023-09-30T04:55:36;100172.58;;;17.80;55.64
70338;BME280;57757;53.198;19.646;2023-09-30T04:58:05;100180.61;;;17.81;55.72
70338;BME280;57757;53.198;19.646;2023-09-30T05:00:33;100184.91;;;17.83;55.86
70338;BME280;57757;53.198;19.646;2023-09-30T05:03:02;100186.07;;;17.85;55.89
70338;BME280;57757;53.198;19.646;2023-09-30T05:05:30;100196.36;;;17.86;55.94
70338;BME280;57757;53.198;19.646;2023-09-30T05:07:58;100198.46;;;17.86;56.03
70338;BME280;57757;53.198;19.646;2023-09-30T05:10:26;100202.83;;;17.87;56.11
70338;BME280;57757;53.198;19.646;2023-09-30T05:12:53;100203.27;;;17.88;56.15
70338;BME280;57757;53.198;19.646;2023-09-30T05:15:22;100203.64;;;17.91;56.24
70338;BME280;57757;53.198;19.646;2023-09-30T05:17:50;100204.40;;;17.94;56.40
70338;BME280;57757;53.198;19.646;2023-09-30T05:20:18;100206.48;;;17.97;56.37
70338;BME280;57757;53.198;19.646;2023-09-30T05:22:46;100206.02;;;17.99;56.48
70338;BME280;57757;53.198;19.646;2023-09-30T05:25:15;100207.17;;;18.01;56.54
70338;BME280;57757;53.198;19.646;2023-09-30T05:27:44;100217.06;;;18.03;56.58
70338;BME280;57757;53.198;19.646;2023-09-30T05:30:16;100224.24;;;18.04;56.62
70338;BME280;57757;53.198;19.646;2023-09-30T05:32:44;100232.13;;;18.05;56.65
70338;BME280;57757;53.198;19.646;2023-09-30T05:35:14;100238.81;;;18.05;56.81
70338;BME280;57757;53.198;19.646;2023-09-30T05:37:45;100239.96;;;18.06;56.85
70338;BME280;57757;53.198;19.646;2023-09-30T05:40:13;100244.17;;;18.06;56.96
70338;BME280;57757;53.198;19.646;2023-09-30T05:42:55;100244.15;;;18.07;57.07
70338;BME280;57757;53.198;19.646;2023-09-30T05:45:27;100244.99;;;18.08;57.13
70338;BME280;57757;53.198;19.646;2023-09-30T05:47:55;100249.32;;;18.09;57.06
70338;BME280;57757;53.198;19.646;2023-09-30T05:50:24;100248.65;;;18.12;57.29
70338;BME280;57757;53.198;19.646;2023-09-30T05:52:55;100249.69;;;18.15;57.24
70338;BME280;57757;53.198;19.646;2023-09-30T05:55:24;100254.43;;;18.19;57.40
70338;BME280;57757;53.198;19.646;2023-09-30T05:57:54;100259.64;;;18.20;57.35
70338;BME280;57757;53.198;19.646;2023-09-30T06:00:23;100263.80;;;18.21;57.40
70338;BME280;57757;53.198;19.646;2023-09-30T06:02:57;100267.52;;;18.21;57.46
70338;BME280;57757;53.198;19.646;2023-09-30T06:05:26;100266.64;;;18.20;57.60
70338;BME280;57757;53.198;19.646;2023-09-30T06:07:54;100266.96;;;18.21;57.65
70338;BME280;57757;53.198;19.646;2023-09-30T06:10:22;100272.42;;;18.21;57.71
70338;BME280;57757;53.198;19.646;2023-09-30T06:12:51;100272.38;;;18.19;57.85
70338;BME280;57757;53.198;19.646;2023-09-30T06:15:24;100280.89;;;18.17;57.89
70338;BME280;57757;53.198;19.646;2023-09-30T06:17:56;100280.67;;;18.15;57.91
70338;BME280;57757;53.198;19.646;2023-09-30T06:20:26;100283.56;;;18.13;57.90
70338;BME280;57757;53.198;19.646;2023-09-30T06:22:55;100285.26;;;18.11;58.14
70338;BME280;57757;53.198;19.646;2023-09-30T06:25:23;100288.73;;;18.09;58.24
70338;BME280;57757;53.198;19.646;2023-09-30T06:27:53;100290.23;;;18.07;58.31
70338;BME280;57757;53.198;19.646;2023-09-30T06:30:25;100297.16;;;18.06;58.53
70338;BME280;57757;53.198;19.646;2023-09-30T06:33:00;100296.38;;;18.05;58.51
70338;BME280;57757;53.198;19.646;2023-09-30T06:35:29;100305.06;;;18.03;58.60
70338;BME280;57757;53.198;19.646;2023-09-30T06:38:04;100305.15;;;18.01;58.84
70338;BME280;57757;53.198;19.646;2023-09-30T06:40:34;100306.76;;;18.01;58.88
70338;BME280;57757;53.198;19.646;2023-09-30T06:43:07;100310.73;;;17.99;58.93
70338;BME280;57757;53.198;19.646;2023-09-30T06:45:36;100315.27;;;17.96;59.03
70338;BME280;57757;53.198;19.646;2023-09-30T06:48:11;100318.86;;;17.95;59.07
70338;BME280;57757;53.198;19.646;2023-09-30T06:50:46;100318.38;;;17.94;59.27
70338;BME280;57757;53.198;19.646;2023-09-30T06:53:16;100319.83;;;17.93;59.35
70338;BME280;57757;53.198;19.646;2023-09-30T06:55:45;100316.52;;;17.93;59.30
70338;BME280;57757;53.198;19.646;2023-09-30T06:58:13;100329.92;;;17.92;59.41
70338;BME280;57757;53.198;19.646;2023-09-30T07:00:41;100338.94;;;17.91;59.45
70338;BME280;57757;53.198;19.646;2023-09-30T07:03:09;100340.67;;;17.88;59.43
70338;BME280;57757;53.198;19.646;2023-09-30T07:05:39;100345.24;;;17.85;59.35
70338;BME280;57757;53.198;19.646;2023-09-30T07:08:07;100346.71;;;17.80;59.33
70338;BME280;57757;53.198;19.646;2023-09-30T07:10:35;100347.94;;;17.77;59.47
70338;BME280;57757;53.198;19.646;2023-09-30T07:13:03;100357.33;;;17.76;59.54
70338;BME280;57757;53.198;19.646;2023-09-30T07:15:31;100371.09;;;17.71;59.42
70338;BME280;57757;53.198;19.646;2023-09-30T07:17:58;100378.54;;;17.62;59.34
70338;BME280;57757;53.198;19.646;2023-09-30T07:20:26;100374.39;;;17.53;59.45
70338;BME280;57757;53.198;19.646;2023-09-30T07:22:55;100384.86;;;17.44;59.38
70338;BME280;57757;53.198;19.646;2023-09-30T07:25:42;100389.52;;;17.35;59.40
70338;BME280;57757;53.198;19.646;2023-09-30T07:28:11;100395.67;;;17.25;59.58
70338;BME280;57757;53.198;19.646;2023-09-30T07:30:40;100406.76;;;17.16;59.76
70338;BME280;57757;53.198;19.646;2023-09-30T07:33:08;100405.61;;;17.11;59.75
70338;BME280;57757;53.198;19.646;2023-09-30T07:35:37;100406.02;;;17.06;60.04
70338;BME280;57757;53.198;19.646;2023-09-30T07:38:06;100403.25;;;17.01;59.97
70338;BME280;57757;53.198;19.646;2023-09-30T07:40:34;100405.90;;;16.97;60.06
70338;BME280;57757;53.198;19.646;2023-09-30T07:43:02;100409.17;;;16.95;60.23
70338;BME280;57757;53.198;19.646;2023-09-30T07:45:30;100416.58;;;16.95;60.27
70338;BME280;57757;53.198;19.646;2023-09-30T07:47:57;100418.81;;;16.92;60.43
70338;BME280;57757;53.198;19.646;2023-09-30T07:50:31;100428.23;;;16.90;60.43
70338;BME280;57757;53.198;19.646;2023-09-30T07:52:59;100428.65;;;16.84;60.41
70338;BME280;57757;53.198;19.646;2023-09-30T07:55:28;100430.59;;;16.81;60.31
70338;BME280;57757;53.198;19.646;2023-09-30T07:57:56;100437.42;;;16.77;60.42
70338;BME280;57757;53.198;19.646;2023-09-30T08:00:27;100439.06;;;16.75;60.37
70338;BME280;57757;53.198;19.646;2023-09-30T08:02:55;100444.81;;;16.72;60.28
70338;BME280;57757;53.198;19.646;2023-09-30T08:05:23;100451.95;;;16.70;60.31
70338;BME280;57757;53.198;19.646;2023-09-30T08:07:51;100454.95;;;16.69;60.36
70338;BME280;57757;53.198;19.646;2023-09-30T08:10:18;100458.11;;;16.70;60.43
70338;BME280;57757;53.198;19.646;2023-09-30T08:12:46;100462.50;;;16.69;60.38
70338;BME280;57757;53.198;19.646;2023-09-30T08:15:16;100466.85;;;16.70;60.56
70338;BME280;57757;53.198;19.646;2023-09-30T08:17:44;100465.06;;;16.71;60.53
70338;BME280;57757;53.198;19.646;2023-09-30T08:20:12;100469.83;;;16.75;60.66
70338;BME280;57757;53.198;19.646;2023-09-30T08:22:41;100471.81;;;16.78;60.34
70338;BME280;57757;53.198;19.646;2023-09-30T08:25:09;100472.74;;;16.80;60.32
70338;BME280;57757;53.198;19.646;2023-09-30T08:27:38;100475.89;;;16.84;60.28
70338;BME280;57757;53.198;19.646;2023-09-30T08:30:09;100475.79;;;16.91;60.12
70338;BME280;57757;53.198;19.646;2023-09-30T08:32:37;100476.51;;;16.98;60.01
70338;BME280;57757;53.198;19.646;2023-09-30T08:35:06;100479.08;;;17.07;60.18
70338;BME280;57757;53.198;19.646;2023-09-30T08:37:34;100478.08;;;17.17;60.15
70338;BME280;57757;53.198;19.646;2023-09-30T08:40:03;100475.61;;;17.29;60.03
70338;BME280;57757;53.198;19.646;2023-09-30T08:42:32;100475.05;;;17.41;60.00
70338;BME280;57757;53.198;19.646;2023-09-30T08:45:04;100477.02;;;17.55;59.86
70338;BME280;57757;53.198;19.646;2023-09-30T08:47:34;100481.95;;;17.70;59.71
70338;BME280;57757;53.198;19.646;2023-09-30T08:50:07;100482.03;;;17.83;59.61
70338;BME280;57757;53.198;19.646;2023-09-30T08:52:43;100484.77;;;17.98;59.64
70338;BME280;57757;53.198;19.646;2023-09-30T08:55:12;100488.30;;;18.20;59.65
70338;BME280;57757;53.198;19.646;2023-09-30T08:57:41;100484.70;;;18.42;59.48
70338;BME280;57757;53.198;19.646;2023-09-30T09:00:13;100490.70;;;18.56;59.24
70338;BME280;57757;53.198;19.646;2023-09-30T09:02:42;100497.54;;;18.59;58.88
70338;BME280;57757;53.198;19.646;2023-09-30T09:05:11;100499.60;;;18.60;58.75
70338;BME280;57757;53.198;19.646;2023-09-30T09:07:39;100502.10;;;18.64;58.55
70338;BME280;57757;53.198;19.646;2023-09-30T09:10:09;100505.44;;;18.67;58.43
70338;BME280;57757;53.198;19.646;2023-09-30T09:12:38;100506.85;;;18.71;58.26
70338;BME280;57757;53.198;19.646;2023-09-30T09:15:27;100511.11;;;18.74;57.95
70338;BME280;57757;53.198;19.646;2023-09-30T09:17:59;100509.50;;;18.77;57.85
70338;BME280;57757;53.198;19.646;2023-09-30T09:20:27;100511.59;;;18.81;57.84
70338;BME280;57757;53.198;19.646;2023-09-30T09:22:55;100511.21;;;18.98;58.04
70338;BME280;57757;53.198;19.646;2023-09-30T09:25:25;100510.10;;;19.25;58.17
70338;BME280;57757;53.198;19.646;2023-09-30T09:27:54;100511.35;;;19.58;57.95
70338;BME280;57757;53.198;19.646;2023-09-30T09:30:24;100511.62;;;19.87;58.11
70338;BME280;57757;53.198;19.646;2023-09-30T09:33:03;100511.45;;;20.27;57.78
70338;BME280;57757;53.198;19.646;2023-09-30T09:35:34;100518.96;;;20.62;57.55
70338;BME280;57757;53.198;19.646;2023-09-30T09:38:07;100520.89;;;20.74;56.86
70338;BME280;57757;53.198;19.646;2023-09-30T09:40:37;100525.70;;;20.87;56.69
70338;BME280;57757;53.198;19.646;2023-09-30T09:43:09;100531.23;;;21.01;56.23
70338;BME280;57757;53.198;19.646;2023-09-30T09:45:37;100538.36;;;21.03;56.01
70338;BME280;57757;53.198;19.646;2023-09-30T09:48:06;100545.03;;;20.98;55.64
70338;BME280;57757;53.198;19.646;2023-09-30T09:50:35;100549.83;;;20.89;55.36
70338;BME280;57757;53.198;19.646;2023-09-30T09:53:07;100553.08;;;20.82;55.46
70338;BME280;57757;53.198;19.646;2023-09-30T09:55:36;100555.49;;;20.80;55.43
70338;BME280;57757;53.198;19.646;2023-09-30T09:58:06;100557.54;;;20.90;55.43
70338;BME280;57757;53.198;19.646;2023-09-30T10:00:36;100561.58;;;21.02;55.07
70338;BME280;57757;53.198;19.646;2023-09-30T10:03:04;100562.65;;;21.02;54.97
70338;BME280;57757;53.198;19.646;2023-09-30T10:05:32;100564.33;;;20.97;54.70
70338;BME280;57757;53.198;19.646;2023-09-30T10:08:03;100568.85;;;20.93;54.57
70338;BME280;57757;53.198;19.646;2023-09-30T10:10:37;100569.11;;;20.97;54.55
70338;BME280;57757;53.198;19.646;2023-09-30T10:13:05;100573.13;;;21.22;54.46
70338;BME280;57757;53.198;19.646;2023-09-30T10:15:35;100569.98;;;21.21;54.08
70338;BME280;57757;53.198;19.646;2023-09-30T10:20:43;100570.23;;;21.62;54.29
70338;BME280;57757;53.198;19.646;2023-09-30T10:23:29;100575.23;;;21.95;53.95
70338;BME280;57757;53.198;19.646;2023-09-30T10:26:16;100576.59;;;22.13;53.51
70338;BME280;57757;53.198;19.646;2023-09-30T10:28:47;100583.77;;;22.19;52.85
70338;BME280;57757;53.198;19.646;2023-09-30T10:31:19;100585.98;;;22.26;52.64
70338;BME280;57757;53.198;19.646;2023-09-30T10:36:33;100585.52;;;22.19;51.90
70338;BME280;57757;53.198;19.646;2023-09-30T10:39:03;100577.02;;;22.06;51.90
70338;BME280;57757;53.198;19.646;2023-09-30T10:41:50;100585.83;;;22.12;51.95
70338;BME280;57757;53.198;19.646;2023-09-30T10:47:37;100589.54;;;21.73;51.09
70338;BME280;57757;53.198;19.646;2023-09-30T10:53:09;100601.26;;;22.09;51.65
70338;BME280;57757;53.198;19.646;2023-09-30T10:55:37;100605.05;;;22.37;51.38
70338;BME280;57757;53.198;19.646;2023-09-30T10:58:05;100598.55;;;22.37;50.84
70338;BME280;57757;53.198;19.646;2023-09-30T11:00:33;100601.96;;;22.31;50.76
70338;BME280;57757;53.198;19.646;2023-09-30T11:03:01;100602.02;;;22.13;50.29
70338;BME280;57757;53.198;19.646;2023-09-30T11:05:30;100601.20;;;21.90;50.10
70338;BME280;57757;53.198;19.646;2023-09-30T11:08:21;100603.41;;;21.72;50.24
70338;BME280;57757;53.198;19.646;2023-09-30T11:10:53;100606.81;;;21.86;50.50
70338;BME280;57757;53.198;19.646;2023-09-30T11:13:22;100607.60;;;22.39;50.62
70338;BME280;57757;53.198;19.646;2023-09-30T11:16:02;100610.69;;;22.83;50.14
70338;BME280;57757;53.198;19.646;2023-09-30T11:18:32;100607.63;;;23.12;49.89
70338;BME280;57757;53.198;19.646;2023-09-30T11:21:08;100608.52;;;23.53;49.89
70338;BME280;57757;53.198;19.646;2023-09-30T11:23:37;100605.46;;;23.93;49.42
70338;BME280;57757;53.198;19.646;2023-09-30T11:26:05;100605.88;;;24.17;49.44
70338;BME280;57757;53.198;19.646;2023-09-30T11:28:41;100606.08;;;24.29;48.50
70338;BME280;57757;53.198;19.646;2023-09-30T11:31:12;100606.92;;;24.32;48.44
70338;BME280;57757;53.198;19.646;2023-09-30T11:33:53;100603.39;;;24.72;48.53
70338;BME280;57757;53.198;19.646;2023-09-30T11:36:21;100605.64;;;25.10;48.27
70338;BME280;57757;53.198;19.646;2023-09-30T11:38:51;100609.16;;;25.49;48.05
70338;BME280;57757;53.198;19.646;2023-09-30T11:41:22;100613.35;;;25.55;47.57
70338;BME280;57757;53.198;19.646;2023-09-30T11:44:07;100612.36;;;25.36;47.16
70338;BME280;57757;53.198;19.646;2023-09-30T11:46:59;100616.66;;;25.01;46.64
70338;BME280;57757;53.198;19.646;2023-09-30T11:51:57;100622.23;;;23.87;46.37
70338;BME280;57757;53.198;19.646;2023-09-30T11:54:37;100616.09;;;23.52;46.36
70338;BME280;57757;53.198;19.646;2023-09-30T11:57:07;100614.88;;;23.66;46.44
70338;BME280;57757;53.198;19.646;2023-09-30T11:59:38;100611.95;;;24.02;46.68
70338;BME280;57757;53.198;19.646;2023-09-30T12:02:09;100606.91;;;24.42;46.35
70338;BME280;57757;53.198;19.646;2023-09-30T12:04:43;100608.52;;;24.47;45.72
70338;BME280;57757;53.198;19.646;2023-09-30T12:07:12;100609.34;;;24.36;45.28
70338;BME280;57757;53.198;19.646;2023-09-30T12:09:40;100614.13;;;23.96;45.16
70338;BME280;57757;53.198;19.646;2023-09-30T12:12:09;100610.84;;;23.50;45.03
70338;BME280;57757;53.198;19.646;2023-09-30T12:14:38;100617.85;;;23.01;45.01
70338;BME280;57757;53.198;19.646;2023-09-30T12:17:06;100616.42;;;22.77;45.34
70338;BME280;57757;53.198;19.646;2023-09-30T12:19:40;100617.34;;;22.79;45.11
70338;BME280;57757;53.198;19.646;2023-09-30T12:22:10;100618.16;;;22.96;45.52
70338;BME280;57757;53.198;19.646;2023-09-30T12:24:38;100616.83;;;23.54;45.65
70338;BME280;57757;53.198;19.646;2023-09-30T12:27:07;100614.74;;;24.32;45.73
70338;BME280;57757;53.198;19.646;2023-09-30T12:29:35;100612.80;;;25.18;45.68
70338;BME280;57757;53.198;19.646;2023-09-30T12:32:06;100613.73;;;25.90;45.10
70338;BME280;57757;53.198;19.646;2023-09-30T12:34:34;100613.95;;;26.21;44.25
70338;BME280;57757;53.198;19.646;2023-09-30T12:37:03;100618.40;;;26.12;43.83
70338;BME280;57757;53.198;19.646;2023-09-30T12:39:31;100620.73;;;25.74;43.39
70338;BME280;57757;53.198;19.646;2023-09-30T12:42:01;100617.95;;;25.28;43.29
70338;BME280;57757;53.198;19.646;2023-09-30T12:44:28;100617.45;;;24.83;43.25
70338;BME280;57757;53.198;19.646;2023-09-30T12:46:56;100614.98;;;24.43;43.25
70338;BME280;57757;53.198;19.646;2023-09-30T12:49:24;100620.70;;;24.09;43.07
70338;BME280;57757;53.198;19.646;2023-09-30T12:51:52;100623.91;;;23.64;42.99
70338;BME280;57757;53.198;19.646;2023-09-30T12:54:19;100615.90;;;23.31;43.13
70338;BME280;57757;53.198;19.646;2023-09-30T12:56:47;100624.44;;;23.10;43.13
70338;BME280;57757;53.198;19.646;2023-09-30T12:59:16;100626.98;;;22.79;43.01
70338;BME280;57757;53.198;19.646;2023-09-30T13:01:45;100630.63;;;22.58;43.12
70338;BME280;57757;53.198;19.646;2023-09-30T13:04:14;100628.34;;;22.58;43.19
70338;BME280;57757;53.198;19.646;2023-09-30T13:06:43;100628.80;;;22.56;43.15